Jarrell, Texas
Current Conditions -  °F | °C
As of 9:53 AM on Tuesday 21 Oct 2014 (Local Time) from KGTU Reporting Station
Clear Clear  
Wind Chill: 19°   Ceiling: Unl
Heat Index: 19°   Visibility: 10mi
Dew Point: 16°   Wind: 5mph
Humidity: 83%   Direction: 60°ENE
Pressure: 30.11"   Gusts: NA
Location:  30.82°N, 97.6°W
Report Text: KGTU 211453Z 06004KT 10SM CLR 19/16 A3011
Loading
Personal Weather Stations






























Interactive Weather Map
Tropical Storm Tracking
New forecast layout! Learn more

10-Day Weather Forecast

Advertisements
Track Severe Weather on mobile